This is the latest recevied weather packets stored in our database for station/object K9RCP-24. If no packets are shown the sender has not sent any weather packets the latest 10 day(s).
| Time | Temp. | Humidity | Pressure | Rain* | Wind** | Luminosity | Snow |
|---|---|---|---|---|---|---|---|
| 1777566110 | 14.44° C | 68% | 1023 hPa | 0 mm | - | - | - |
| 1777565739 | 13.89° C | 68% | 1023.4 hPa | 0 mm | - | - | - |
| 1777565615 | 13.89° C | 68% | 1023 hPa | 0 mm | - | - | - |
| 1777565491 | 13.89° C | 69% | 1023 hPa | 0 mm | - | - | - |
| 1777564684 | 12.78° C | 74% | 1023.4 hPa | 0 mm | - | - | - |
| 1777563934 | 12.22° C | 74% | 1023 hPa | 0 mm | - | - | - |
| 1777563418 | 11.67° C | 77% | 1023 hPa | 0 mm | - | - | - |
| 1777562910 | 11.67° C | 77% | 1023 hPa | 0 mm | - | - | - |
| 1777562784 | 11.67° C | 77% | 1023 hPa | 0 mm | - | - | - |
| 1777561854 | 11.67° C | 76% | 1023.4 hPa | 0 mm | - | - | - |
| 1777561730 | 11.67° C | 76% | 1023 hPa | 0 mm | - | - | - |
| 1777561354 | 11.67° C | 76% | 1023 hPa | 0 mm | - | - | - |
| 1777561105 | 11.11° C | 77% | 1023.4 hPa | 0 mm | - | - | - |
| 1777560231 | 11.11° C | 75% | 1023 hPa | 0 mm | - | - | - |
| 1777559236 | 10.56° C | 76% | 1023 hPa | 0 mm | - | - | - |
| 1777558862 | 9.44° C | 78% | 1023 hPa | 0 mm | - | - | - |
| 1777558739 | 9.44° C | 79% | 1023 hPa | 0 mm | - | - | - |
| 1777558470 | 8.89° C | 81% | 1023 hPa | 0 mm | - | - | - |
| 1777557536 | 8.33° C | 82% | 1023 hPa | 0 mm | - | - | - |
| 1777556995 | 7.78° C | 83% | 1022.7 hPa | 0 mm | - | - | - |
| 1777556456 | 7.78° C | 83% | 1023 hPa | 0 mm | - | - | - |
| 1777556050 | 7.22° C | 84% | 1023 hPa | 0 mm | - | - | - |
| 1777554873 | 6.67° C | 84% | 1022.7 hPa | 0 mm | - | - | - |
| 1777554368 | 7.22° C | 85% | 1023 hPa | 0 mm | - | - | - |
| 1777554244 | 7.22° C | 85% | 1022.7 hPa | 0 mm | - | - | - |
* Rain latest hour (hover to see other rain measurements)
** Current wind speed in m/s (hover to see current wind gust speed)